OPKC/KHI METAR and TAF weather

Enter ICAO airport designator
Station Type Date Time Source
OPKC METAR 2019/04/18 22:25 UTC NOAA

OPKC 182225Z VRB05KT 6000 NSC 25/20 Q1012 NOSIG


Station Type Date Time Source
OPKC Decoded METAR 2019/04/18 22:25 UTC NOAA

Karachi Airport, Pakistan (OPKC) 24-54N 067-08E 22M
Apr 18, 2019 - 06:25 PM EDT / 2019.04.18 2225 UTC
Wind: Variable at 6 MPH (5 KT):0
Visibility: 3 mile(s):0
Temperature: 77 F (25 C)
Dew Point: 68 F (20 C)
Relative Humidity: 73%
Pressure (altimeter): 29.88 in. Hg (1012 hPa)
ob: OPKC 182225Z VRB05KT 6000 NSC 25/20 Q1012 NOSIG
cycle: 22

Station Type Date Time Source
OPKC TAF 2019/04/18 18:18 UTC NOAA

TAF OPKC 181600Z 1818/1924 26010KT 5000 HZ NSC
TEMPO 1900/1903 28006KT 4000 HZ NSC
FM190500 24008G18KT 7000 NSC
BECMG 1918/1920 26010KT 6000 NSC

Example: see airport list